Time;durP1;ratioP1;P1;durP2;ratioP2;P2;SDS_P1;SDS_P2;PMS_P1;PMS_P2;Temp;Humidity;BMP_temperature;BMP_pressure;BME280_temperature;BME280_humidity;BME280_pressure;Samples;Min_cycle;Max_cycle;Signal;HPM_P1;HPM_P2
2022/04/13 00:01:47;;;;;;;8.47;6.87;;;;;;;4.38;76.82;97799.94;6183460;28;20305;-82
2022/04/13 00:04:49;;;;;;;9.17;6.60;;;;;;;4.39;76.83;97794.59;6183258;28;20244;-82
2022/04/13 00:07:53;;;;;;;10.53;6.87;;;;;;;4.39;77.05;97794.59;6182007;28;20229;-82
2022/04/13 00:10:55;;;;;;;6.73;5.20;;;;;;;4.43;77.17;97790.06;6188194;28;20708;-81
2022/04/13 00:13:57;;;;;;;9.70;5.43;;;;;;;4.42;76.79;97791.84;6185993;28;20250;-82
2022/04/13 00:16:59;;;;;;;6.67;4.67;;;;;;;4.42;77.54;97786.63;6166703;28;20728;-81
2022/04/13 00:20:03;;;;;;;12.20;5.00;;;;;;;4.38;76.95;97792.94;6175751;28;20709;-82
2022/04/13 00:23:07;;;;;;;6.50;5.17;;;;;;;4.33;77.51;97792.34;6162660;28;20709;-81
2022/04/13 00:26:09;;;;;;;6.93;4.87;;;;;;;4.30;77.52;97796.88;6181183;28;20588;-82
2022/04/13 00:29:11;;;;;;;5.73;4.70;;;;;;;4.28;77.95;97796.97;6166712;28;20609;-82
2022/04/13 00:32:13;;;;;;;5.43;4.07;;;;;;;4.29;77.56;97797.81;6181392;28;20240;-82
2022/04/13 00:35:16;;;;;;;5.50;3.97;;;;;;;4.23;78.10;97793.75;6173773;28;20230;-82
2022/04/13 00:38:19;;;;;;;6.23;4.27;;;;;;;4.19;78.15;97792.25;6181204;28;20843;-82
2022/04/13 00:41:22;;;;;;;6.57;3.90;;;;;;;4.15;77.75;97792.47;6180695;28;20237;-81
2022/04/13 00:44:27;;;;;;;7.40;4.20;;;;;;;4.12;77.79;97784.78;6182382;28;20237;-82
2022/04/13 00:47:29;;;;;;;7.50;4.87;;;;;;;4.10;77.57;97790.09;6180763;28;20294;-81
2022/04/13 00:50:32;;;;;;;8.97;4.90;;;;;;;4.05;77.86;97786.88;6182640;28;20216;-82
2022/04/13 00:53:35;;;;;;;9.20;5.03;;;;;;;3.97;77.88;97789.06;6182224;28;20252;-82
2022/04/13 00:56:40;;;;;;;7.13;5.07;;;;;;;3.94;77.56;97792.66;6164188;28;20236;-82
2022/04/13 00:59:44;;;;;;;5.37;4.53;;;;;;;3.93;77.55;97790.13;6180969;28;20241;-81
2022/04/13 01:02:46;;;;;;;5.57;4.77;;;;;;;3.91;78.44;97792.81;6181741;28;20240;-81
2022/04/13 01:05:50;;;;;;;8.20;4.57;;;;;;;3.87;77.93;97791.31;6182156;28;20606;-81
2022/04/13 01:08:55;;;;;;;6.03;4.53;;;;;;;3.84;78.28;97798.44;6171315;28;20235;-81
2022/04/13 01:11:57;;;;;;;7.60;5.00;;;;;;;3.85;78.12;97790.53;6190262;28;20249;-81
2022/04/13 01:14:59;;;;;;;6.93;4.70;;;;;;;3.86;78.00;97794.00;6180973;28;20236;-81
2022/04/13 01:18:02;;;;;;;7.20;4.70;;;;;;;3.84;78.11;97796.69;6155977;28;20237;-82
2022/04/13 01:21:05;;;;;;;9.70;5.00;;;;;;;3.82;78.53;97780.25;6172141;28;20240;-82
2022/04/13 01:24:08;;;;;;;5.83;4.20;;;;;;;3.79;78.56;97787.41;6180208;28;20637;-81
2022/04/13 01:27:10;;;;;;;8.63;4.73;;;;;;;3.78;78.75;97783.97;6180207;28;20419;-82
2022/04/13 01:30:13;;;;;;;9.17;4.77;;;;;;;3.75;77.99;97789.31;6164034;28;20746;-81
2022/04/13 01:33:16;;;;;;;8.47;4.93;;;;;;;3.75;78.24;97791.94;6180184;28;20232;-82
2022/04/13 01:36:19;;;;;;;6.83;4.93;;;;;;;3.74;78.60;97792.00;6180908;28;20231;-82
2022/04/13 01:39:21;;;;;;;7.93;4.70;;;;;;;3.69;78.26;97792.25;6163550;28;20305;-82
2022/04/13 01:42:23;;;;;;;7.50;5.00;;;;;;;3.60;78.74;97798.75;6179250;28;20664;-81
2022/04/13 01:45:24;;;;;;;8.27;5.97;;;;;;;3.57;78.40;97792.88;6180141;28;20223;-81
2022/04/13 01:48:26;;;;;;;6.83;4.90;;;;;;;3.51;78.59;97790.56;6182239;28;20605;-81
2022/04/13 01:51:28;;;;;;;6.13;5.40;;;;;;;3.48;78.32;97791.56;6166485;28;20227;-81
2022/04/13 01:54:31;;;;;;;5.57;4.50;;;;;;;3.50;78.96;97792.31;6173183;28;20231;-82
2022/04/13 01:57:33;;;;;;;8.77;4.80;;;;;;;3.47;78.32;97787.28;6183259;28;20235;-81
2022/04/13 02:00:36;;;;;;;6.37;5.00;;;;;;;3.43;78.42;97796.16;6179334;28;20762;-82
2022/04/13 02:03:40;;;;;;;6.93;4.90;;;;;;;3.36;78.57;97797.41;6163724;28;20250;-82
2022/04/13 02:06:42;;;;;;;9.60;5.63;;;;;;;3.33;79.26;97790.56;6178776;28;20798;-82
2022/04/13 02:09:44;;;;;;;5.73;4.80;;;;;;;3.35;79.14;97806.13;6184801;28;20237;-82
2022/04/13 02:12:48;;;;;;;6.97;5.03;;;;;;;3.30;79.26;97810.72;6180394;28;20223;-82
2022/04/13 02:15:50;;;;;;;7.20;5.30;;;;;;;3.28;79.17;97812.59;6181176;28;20227;-81
2022/04/13 02:18:52;;;;;;;8.73;5.90;;;;;;;3.28;79.48;97809.97;6179843;28;20286;-82
2022/04/13 02:21:55;;;;;;;6.83;4.30;;;;;;;3.22;78.94;97810.25;6180282;28;20595;-81
2022/04/13 02:25:02;;;;;;;7.53;5.57;;;;;;;3.17;79.02;97813.09;6162587;28;20228;-81
2022/04/13 02:28:05;;;;;;;7.37;5.70;;;;;;;3.15;79.06;97808.88;6178714;28;20237;-81
2022/04/13 02:31:07;;;;;;;8.23;5.60;;;;;;;3.15;79.56;97814.09;6179365;28;20235;-82
2022/04/13 02:34:10;;;;;;;7.23;5.23;;;;;;;3.09;79.32;97807.44;6170393;28;20612;-81
2022/04/13 02:37:12;;;;;;;6.93;5.53;;;;;;;3.07;79.53;97814.47;6159864;28;20231;-81
2022/04/13 02:40:14;;;;;;;7.20;5.77;;;;;;;3.03;79.74;97810.31;6156307;28;20234;-82
2022/04/13 02:43:16;;;;;;;8.57;5.93;;;;;;;3.02;80.08;97813.84;6155677;28;20392;-82
2022/04/13 02:46:19;;;;;;;8.10;5.50;;;;;;;2.98;79.59;97812.31;6147413;28;20234;-82
2022/04/13 02:49:21;;;;;;;9.00;6.40;;;;;;;2.97;79.81;97815.84;6164996;28;20246;-81
2022/04/13 02:52:35;;;;;;;7.43;6.10;;;;;;;2.98;80.19;97807.09;6179570;28;20243;-81
2022/04/13 02:55:37;;;;;;;8.57;6.50;;;;;;;2.99;80.06;97810.53;6178091;28;20231;-81
2022/04/13 02:58:39;;;;;;;9.97;6.00;;;;;;;2.93;79.47;97801.25;6160247;28;20244;-81
2022/04/13 03:01:43;;;;;;;10.70;6.70;;;;;;;2.88;79.79;97811.06;6156872;28;20710;-81
2022/04/13 03:04:47;;;;;;;8.47;5.97;;;;;;;2.82;79.64;97804.34;6162197;28;20228;-82
2022/04/13 03:07:49;;;;;;;10.20;6.10;;;;;;;2.78;79.75;97807.19;6178489;28;20222;-81
2022/04/13 03:10:51;;;;;;;8.27;6.37;;;;;;;2.77;79.78;97805.50;6182584;28;20731;-81
2022/04/13 03:13:53;;;;;;;9.73;5.67;;;;;;;2.75;79.93;97807.31;6169177;28;20239;-81
2022/04/13 03:16:55;;;;;;;10.13;6.97;;;;;;;2.72;79.84;97813.53;6161636;28;20358;-81
2022/04/13 03:19:57;;;;;;;7.60;5.90;;;;;;;2.71;79.60;97824.00;6183606;28;20692;-81
2022/04/13 03:23:03;;;;;;;7.80;5.70;;;;;;;2.66;80.10;97819.03;6167184;28;20234;-81
2022/04/13 03:26:05;;;;;;;10.33;6.17;;;;;;;2.63;80.28;97819.16;6174655;28;20567;-81
2022/04/13 03:29:07;;;;;;;8.00;5.70;;;;;;;2.62;80.02;97824.44;6168757;28;20241;-81
2022/04/13 03:32:10;;;;;;;8.03;5.93;;;;;;;2.62;80.34;97825.28;6166755;28;20238;-82
2022/04/13 03:35:12;;;;;;;8.77;6.07;;;;;;;2.56;80.25;97821.22;6184052;28;20226;-81
2022/04/13 03:38:14;;;;;;;9.30;6.20;;;;;;;2.54;80.33;97825.66;6182333;28;20222;-82
2022/04/13 03:41:16;;;;;;;8.90;5.93;;;;;;;2.52;80.43;97829.22;6183199;28;20229;-81
2022/04/13 03:44:19;;;;;;;11.87;6.60;;;;;;;2.47;80.65;97833.81;6166439;28;20233;-81
2022/04/13 03:47:21;;;;;;;8.53;6.10;;;;;;;2.44;80.50;97829.59;6182290;28;20240;-82
2022/04/13 03:50:23;;;;;;;11.23;6.83;;;;;;;2.39;80.36;97836.78;6166225;28;20594;-82
2022/04/13 03:53:26;;;;;;;8.23;5.63;;;;;;;2.36;80.09;97846.47;6182281;28;20238;-81
2022/04/13 03:56:29;;;;;;;9.47;5.80;;;;;;;2.34;80.64;97838.72;6182077;28;20237;-82
2022/04/13 03:59:32;;;;;;;7.90;5.27;;;;;;;2.26;80.39;97843.44;6182587;28;20234;-82
2022/04/13 04:02:38;;;;;;;8.60;5.53;;;;;;;2.21;80.45;97846.22;6183155;28;20241;-82
2022/04/13 04:05:41;;;;;;;13.57;5.50;;;;;;;2.17;80.58;97849.06;6181870;28;20718;-81
2022/04/13 04:08:43;;;;;;;11.67;6.10;;;;;;;2.18;81.15;97853.34;6188767;28;20237;-81
2022/04/13 04:11:45;;;;;;;11.27;6.63;;;;;;;2.16;80.87;97861.22;6170959;28;20233;-82
2022/04/13 04:14:47;;;;;;;7.77;5.43;;;;;;;2.17;81.43;97865.53;6166631;28;20258;-82
2022/04/13 04:17:49;;;;;;;10.03;6.30;;;;;;;2.16;80.84;97858.63;6165832;28;20231;-81
2022/04/13 04:20:51;;;;;;;10.57;6.30;;;;;;;2.13;81.05;97863.09;6181182;28;20348;-81
2022/04/13 04:23:53;;;;;;;10.83;7.03;;;;;;;2.13;81.24;97871.75;6183100;28;20322;-81
2022/04/13 04:26:57;;;;;;;7.43;5.70;;;;;;;2.12;81.06;97867.47;6182266;28;20324;-81
2022/04/13 04:30:00;;;;;;;7.93;5.90;;;;;;;2.14;81.34;97867.41;6182761;28;20241;-81
2022/04/13 04:33:02;;;;;;;10.57;6.47;;;;;;;2.13;81.56;97870.91;6158291;28;20235;-81
2022/04/13 04:36:05;;;;;;;8.90;5.53;;;;;;;2.13;81.11;97871.75;6172225;28;20228;-81
2022/04/13 04:39:07;;;;;;;8.13;6.23;;;;;;;2.17;81.38;97870.72;6151323;28;20221;-81
2022/04/13 04:42:09;;;;;;;9.50;6.70;;;;;;;2.22;81.39;97876.56;6146533;28;20265;-81
2022/04/13 04:45:13;;;;;;;9.97;6.57;;;;;;;2.25;81.83;97874.75;6158992;28;20569;-82
2022/04/13 04:48:19;;;;;;;10.67;6.77;;;;;;;2.30;81.65;97873.63;6164564;28;20686;-81
2022/04/13 04:51:22;;;;;;;11.70;7.80;;;;;;;2.34;81.53;97872.56;6181117;28;20233;-81
2022/04/13 04:54:24;;;;;;;10.13;6.83;;;;;;;2.38;81.72;97887.16;6164489;28;20734;-81
2022/04/13 04:57:26;;;;;;;10.90;6.43;;;;;;;2.45;81.48;97890.34;6180890;28;20234;-81
2022/04/13 05:00:29;;;;;;;12.17;7.40;;;;;;;2.46;81.49;97894.63;6180511;28;20485;-81
2022/04/13 05:03:32;;;;;;;7.27;6.20;;;;;;;2.48;81.66;97898.03;6182122;28;20226;-81
2022/04/13 05:06:34;;;;;;;11.07;6.67;;;;;;;2.51;81.47;97893.50;6179672;28;20225;-81
2022/04/13 05:09:36;;;;;;;9.87;6.70;;;;;;;2.57;81.48;97913.25;6182764;28;20257;-81
2022/04/13 05:12:48;;;;;;;10.53;7.07;;;;;;;2.67;81.22;97893.69;6180435;28;20702;-82
2022/04/13 05:15:52;;;;;;;8.67;6.90;;;;;;;2.72;81.27;97903.88;6182822;28;20272;-81
2022/04/13 05:18:55;;;;;;;8.00;6.03;;;;;;;2.78;81.22;97907.06;6179334;28;20252;-81
2022/04/13 05:21:57;;;;;;;7.43;6.10;;;;;;;2.84;81.12;97906.78;6179841;28;20360;-81
2022/04/13 05:25:11;;;;;;;8.00;6.87;;;;;;;2.89;81.18;97907.44;6179868;28;20305;-82
2022/04/13 05:28:13;;;;;;;10.13;6.63;;;;;;;2.94;81.01;97902.81;6164752;28;20736;-81
2022/04/13 05:31:15;;;;;;;11.10;7.30;;;;;;;3.01;80.92;97913.81;6180905;28;20701;-81
2022/04/13 05:34:18;;;;;;;11.57;6.97;;;;;;;3.00;80.71;97909.50;6179868;28;20536;-81
2022/04/13 05:37:20;;;;;;;10.53;6.60;;;;;;;3.05;80.75;97904.09;6179867;28;20233;-81
2022/04/13 05:40:23;;;;;;;7.67;6.27;;;;;;;3.06;81.11;97909.25;6179691;28;20240;-81
2022/04/13 05:43:28;;;;;;;9.37;6.73;;;;;;;3.13;80.87;97908.03;6179561;28;20608;-82
2022/04/13 05:46:33;;;;;;;8.93;5.70;;;;;;;3.18;81.08;97911.28;6178686;28;20228;-81
2022/04/13 05:49:35;;;;;;;9.47;6.60;;;;;;;3.31;81.27;97911.53;6180067;28;20642;-82
2022/04/13 05:52:39;;;;;;;9.20;6.67;;;;;;;3.42;81.45;97911.00;6179677;28;20246;-83
2022/04/13 05:55:41;;;;;;;13.83;8.03;;;;;;;3.52;81.45;97920.94;6163415;28;20262;-81
2022/04/13 05:58:43;;;;;;;9.17;6.07;;;;;;;3.64;81.33;97929.94;6145243;28;20232;-82
2022/04/13 06:01:45;;;;;;;8.43;6.50;;;;;;;3.71;80.79;97918.28;6156432;28;20229;-82
2022/04/13 06:04:47;;;;;;;10.60;7.20;;;;;;;3.81;81.07;97921.28;6139136;28;20321;-81
2022/04/13 06:07:50;;;;;;;10.27;6.60;;;;;;;3.93;81.35;97925.91;6156173;28;20587;-81
2022/04/13 06:10:52;;;;;;;11.93;7.97;;;;;;;4.08;80.86;97919.91;6194566;28;20241;-82
2022/04/13 06:13:54;;;;;;;10.67;7.73;;;;;;;4.21;80.91;97920.97;6179302;28;20224;-81
2022/04/13 06:16:56;;;;;;;9.20;6.77;;;;;;;4.32;80.61;97921.28;6180515;28;20232;-81
2022/04/13 06:19:58;;;;;;;8.27;6.23;;;;;;;4.47;80.20;97926.63;6138780;28;20245;-81
2022/04/13 06:23:00;;;;;;;9.60;6.70;;;;;;;4.61;80.10;97926.75;6171458;28;20240;-81
2022/04/13 06:26:03;;;;;;;9.70;6.43;;;;;;;4.72;79.30;97921.81;6178682;28;20225;-82
2022/04/13 06:29:05;;;;;;;9.00;6.47;;;;;;;4.80;79.43;97919.63;6178417;28;20346;-82
2022/04/13 06:32:08;;;;;;;12.13;6.83;;;;;;;4.92;78.53;97928.59;6178199;28;20276;-82
2022/04/13 06:35:12;;;;;;;9.13;6.47;;;;;;;5.11;77.67;97926.66;6163580;28;20237;-82
2022/04/13 06:38:14;;;;;;;9.50;7.07;;;;;;;5.30;77.65;97921.25;6154239;28;20233;-82
2022/04/13 06:41:16;;;;;;;9.30;6.90;;;;;;;5.47;76.18;97911.56;6176520;28;20240;-81
2022/04/13 06:44:19;;;;;;;10.10;6.43;;;;;;;5.63;74.77;97918.53;6163046;28;20231;-82
2022/04/13 06:47:21;;;;;;;10.07;6.53;;;;;;;5.75;74.83;97923.09;6161889;28;20225;-81
2022/04/13 06:50:23;;;;;;;8.30;6.03;;;;;;;5.90;74.19;97920.44;6178431;28;20270;-82
2022/04/13 06:53:26;;;;;;;12.83;6.60;;;;;;;6.09;73.31;97919.41;6165744;28;20242;-82
2022/04/13 06:56:28;;;;;;;9.53;6.57;;;;;;;6.26;72.54;97919.25;6165688;28;20230;-81
2022/04/13 06:59:30;;;;;;;9.43;6.80;;;;;;;6.47;72.00;97923.22;6140672;28;20606;-82
2022/04/13 07:02:34;;;;;;;9.93;6.20;;;;;;;6.82;69.86;97921.06;6166027;28;20233;-82
2022/04/13 07:05:56;;;;;;;10.53;6.13;;;;;;;7.45;66.40;97915.38;6179711;28;20225;-82
2022/04/13 07:08:58;;;;;;;14.33;6.70;;;;;;;7.96;64.12;97920.81;6182416;28;20597;-82
2022/04/13 07:12:01;;;;;;;8.23;5.80;;;;;;;8.46;62.27;97922.72;6179579;28;20717;-81
2022/04/13 07:15:04;;;;;;;11.10;5.73;;;;;;;8.80;62.18;97919.44;6156140;28;20226;-82
2022/04/13 07:18:06;;;;;;;8.37;6.37;;;;;;;9.27;59.26;97920.56;6165094;28;20226;-82
2022/04/13 07:21:08;;;;;;;11.70;6.00;;;;;;;9.62;56.12;97918.00;6180446;28;20240;-82
2022/04/13 07:24:11;;;;;;;8.60;6.00;;;;;;;9.94;56.66;97911.22;6164900;28;20224;-83
2022/04/13 07:27:13;;;;;;;8.93;6.17;;;;;;;10.34;56.65;97909.09;6178705;28;20870;-82
2022/04/13 07:30:16;;;;;;;11.23;6.00;;;;;;;10.69;54.76;97916.97;6161397;28;20213;-82
2022/04/13 07:33:18;;;;;;;8.53;5.93;;;;;;;11.10;53.58;97913.75;6177445;28;20595;-82
2022/04/13 07:36:20;;;;;;;15.93;6.27;;;;;;;11.37;51.84;97921.31;6179011;28;20213;-82
2022/04/13 07:39:23;;;;;;;10.90;6.70;;;;;;;11.64;52.87;97920.88;6177683;28;21105;-82
2022/04/13 07:42:27;;;;;;;10.60;6.10;;;;;;;12.12;51.70;97929.28;6177465;28;20240;-82
2022/04/13 07:45:29;;;;;;;8.90;6.00;;;;;;;12.42;49.64;97920.59;6162326;28;20225;-82
2022/04/13 07:48:31;;;;;;;7.27;5.13;;;;;;;12.84;49.13;97915.28;6177260;28;20626;-83
2022/04/13 07:51:33;;;;;;;7.53;5.27;;;;;;;13.37;48.12;97929.22;6160690;28;20234;-82
2022/04/13 07:54:36;;;;;;;7.93;5.33;;;;;;;13.71;47.56;97931.53;6175795;28;20241;-82
2022/04/13 07:57:43;;;;;;;10.50;5.53;;;;;;;13.65;46.09;97931.13;6177682;28;20241;-83
2022/04/13 08:00:45;;;;;;;7.20;5.27;;;;;;;14.19;45.63;97932.44;6161117;28;20234;-82
2022/04/13 08:03:47;;;;;;;7.83;4.87;;;;;;;14.55;44.91;97938.06;6161434;28;20507;-83
2022/04/13 08:06:50;;;;;;;8.30;5.30;;;;;;;14.68;43.44;97942.06;6179367;28;20235;-83
2022/04/13 08:09:52;;;;;;;5.87;4.37;;;;;;;14.93;44.29;97937.97;6195354;28;20717;-83
2022/04/13 08:12:55;;;;;;;8.33;5.40;;;;;;;15.37;43.01;97944.38;6187426;28;20232;-83
2022/04/13 08:15:57;;;;;;;6.73;5.20;;;;;;;15.65;42.52;97937.31;6165620;28;20718;-83
2022/04/13 08:18:59;;;;;;;11.23;5.40;;;;;;;15.36;41.20;97947.22;6165066;28;20233;-83
2022/04/13 08:22:02;;;;;;;9.27;5.40;;;;;;;15.40;41.09;97948.56;6181080;28;20241;-83
2022/04/13 08:25:05;;;;;;;11.27;5.80;;;;;;;15.71;40.87;97946.50;6181878;28;20713;-83
2022/04/13 08:28:07;;;;;;;11.10;5.27;;;;;;;15.70;39.81;97948.31;6165098;28;20232;-83
2022/04/13 08:31:09;;;;;;;7.60;4.90;;;;;;;16.10;39.86;97933.78;6164599;28;20603;-83
2022/04/13 08:34:12;;;;;;;7.33;5.10;;;;;;;16.25;39.12;97940.25;6181220;28;20379;-83
2022/04/13 08:37:14;;;;;;;7.60;4.87;;;;;;;16.26;38.91;97938.44;6181921;28;20225;-83
2022/04/13 08:40:19;;;;;;;7.43;5.10;;;;;;;16.64;39.10;97938.13;6181773;28;20739;-84
2022/04/13 08:43:32;;;;;;;6.73;4.93;;;;;;;17.05;38.98;97930.41;6165135;28;20252;-83
2022/04/13 08:46:38;;;;;;;7.87;4.93;;;;;;;17.19;38.89;97933.31;6164815;28;20241;-84
2022/04/13 08:49:44;;;;;;;10.47;5.63;;;;;;;16.78;38.14;97929.56;6180880;28;20236;-83
2022/04/13 08:52:53;;;;;;;7.33;5.73;;;;;;;17.06;36.73;97938.25;6164777;28;20225;-84
2022/04/13 08:55:58;;;;;;;8.33;4.87;;;;;;;17.14;37.04;97934.81;6180553;28;20303;-83
2022/04/13 08:59:27;;;;;;;7.70;5.30;;;;;;;17.67;37.08;97935.41;6180075;28;20241;-83
2022/04/13 09:02:50;;;;;;;7.03;5.00;;;;;;;17.95;37.02;97938.69;6180438;28;20237;-84
2022/04/13 09:05:56;;;;;;;8.00;4.40;;;;;;;18.40;36.67;97942.75;6164888;28;20721;-84
2022/04/13 09:09:02;;;;;;;7.73;4.87;;;;;;;18.00;35.51;97935.50;6187984;28;20216;-83
2022/04/13 09:12:05;;;;;;;7.83;5.10;;;;;;;17.75;35.79;97939.13;6137228;28;20580;-83
2022/04/13 09:15:08;;;;;;;9.43;5.57;;;;;;;18.10;35.44;97938.03;6156239;28;20623;-83
2022/04/13 09:18:11;;;;;;;11.27;4.53;;;;;;;18.37;36.25;97943.91;6157513;28;20209;-83
2022/04/13 09:21:17;;;;;;;12.63;5.57;;;;;;;18.06;34.41;97933.03;6179276;28;20240;-84
2022/04/13 09:24:20;;;;;;;8.53;4.90;;;;;;;18.03;35.25;97930.69;6164469;28;20257;-83
2022/04/13 09:27:23;;;;;;;8.33;5.00;;;;;;;18.40;35.62;97942.75;6163838;28;20632;-83
2022/04/13 09:30:27;;;;;;;9.67;5.47;;;;;;;18.54;34.21;97927.91;6180532;28;20233;-83
2022/04/13 09:33:30;;;;;;;5.63;4.40;;;;;;;19.00;34.12;97935.25;6180029;28;20797;-83
2022/04/13 09:36:32;;;;;;;6.77;4.83;;;;;;;19.32;33.38;97922.78;6163032;28;20463;-84
2022/04/13 09:39:35;;;;;;;7.03;5.07;;;;;;;19.07;33.09;97920.16;6163712;28;20229;-83
2022/04/13 09:42:42;;;;;;;7.83;4.47;;;;;;;19.73;33.52;97918.16;6162823;28;20723;-84
2022/04/13 09:45:46;;;;;;;6.67;4.30;;;;;;;20.09;32.41;97915.75;6164797;28;20233;-83
2022/04/13 09:49:10;;;;;;;6.93;4.53;;;;;;;19.85;32.72;97919.44;6179094;28;20383;-85
2022/04/13 09:52:15;;;;;;;7.77;4.83;;;;;;;20.08;33.75;97925.63;6179239;28;20586;-83
2022/04/13 09:55:21;;;;;;;10.23;6.57;;;;;;;19.75;31.62;97919.66;6179387;28;20347;-83
2022/04/13 09:58:25;;;;;;;6.77;4.53;;;;;;;19.84;32.17;97920.44;6162192;28;20602;-83
2022/04/13 10:01:28;;;;;;;8.17;5.17;;;;;;;20.01;32.35;97916.66;6164344;28;20217;-83
2022/04/13 10:04:31;;;;;;;7.50;5.07;;;;;;;19.98;31.37;97916.16;6158712;28;20233;-84
2022/04/13 10:07:35;;;;;;;8.67;5.47;;;;;;;19.37;32.36;97913.22;6179389;28;20232;-84
2022/04/13 10:10:45;;;;;;;8.43;5.30;;;;;;;20.07;31.91;97920.44;6178844;28;20229;-84
2022/04/13 10:13:47;;;;;;;8.50;5.30;;;;;;;20.67;30.62;97903.63;6178763;28;20225;-83
2022/04/13 10:16:52;;;;;;;11.60;5.43;;;;;;;20.31;31.82;97901.53;6162255;28;20244;-84
2022/04/13 10:19:54;;;;;;;7.07;4.67;;;;;;;20.29;31.99;97900.88;6171619;28;20226;-84
2022/04/13 10:23:01;;;;;;;7.53;5.07;;;;;;;20.12;30.87;97918.09;6162108;28;20324;-83
2022/04/13 10:26:09;;;;;;;7.33;4.57;;;;;;;19.97;31.56;97901.94;6179543;28;20237;-83
2022/04/13 10:29:16;;;;;;;7.77;5.50;;;;;;;20.19;31.88;97895.75;6162013;28;20751;-83
2022/04/13 10:32:25;;;;;;;7.87;4.90;;;;;;;20.72;31.37;97893.19;6178503;28;20591;-83
2022/04/13 10:35:29;;;;;;;7.43;4.83;;;;;;;20.86;30.52;97892.41;6180152;28;20292;-83
2022/04/13 10:38:31;;;;;;;7.47;5.30;;;;;;;20.46;30.80;97893.59;6177417;28;20821;-84
2022/04/13 10:41:36;;;;;;;7.37;4.47;;;;;;;20.26;31.35;97887.84;6161966;28;20265;-83
2022/04/13 10:45:03;;;;;;;6.30;4.63;;;;;;;20.62;32.23;97880.88;6183351;28;20233;-83
2022/04/13 10:48:10;;;;;;;10.37;5.20;;;;;;;20.23;31.85;97886.34;6179399;28;20240;-83
2022/04/13 10:51:16;;;;;;;7.37;4.47;;;;;;;20.74;31.81;97883.97;6177744;28;20255;-83
2022/04/13 10:54:24;;;;;;;6.03;4.33;;;;;;;20.93;30.28;97885.28;6178498;28;20229;-83
2022/04/13 10:57:34;;;;;;;6.03;4.80;;;;;;;20.55;31.43;97896.03;6179479;28;20651;-82
2022/04/13 11:00:40;;;;;;;6.10;4.47;;;;;;;20.39;30.38;97887.25;6163453;28;20695;-83
2022/04/13 11:03:43;;;;;;;8.70;5.07;;;;;;;20.87;30.24;97886.81;6179217;28;20229;-83
2022/04/13 11:06:46;;;;;;;5.33;4.33;;;;;;;20.79;30.40;97900.31;6163649;28;20225;-83
2022/04/13 11:09:50;;;;;;;6.97;4.10;;;;;;;20.43;30.99;97897.47;6192847;28;20461;-83
2022/04/13 11:12:53;;;;;;;6.53;4.37;;;;;;;20.95;30.22;97885.94;6163718;28;20228;-83
2022/04/13 11:15:55;;;;;;;5.83;4.27;;;;;;;21.77;30.49;97885.81;6162161;28;20221;-83
2022/04/13 11:19:00;;;;;;;5.20;4.20;;;;;;;22.17;29.61;97881.72;6179062;28;20240;-84
2022/04/13 11:22:03;;;;;;;6.37;4.73;;;;;;;21.72;29.01;97889.91;6177360;28;20248;-83
2022/04/13 11:25:05;;;;;;;8.20;5.13;;;;;;;21.78;28.17;97882.94;6179317;28;20779;-83
2022/04/13 11:28:07;;;;;;;8.97;4.63;;;;;;;21.62;29.78;97883.16;6161539;28;20240;-83
2022/04/13 11:31:13;;;;;;;7.17;4.50;;;;;;;22.12;28.37;97879.63;6178833;28;20720;-84
2022/04/13 11:34:15;;;;;;;5.57;4.60;;;;;;;22.21;28.47;97883.84;6179328;28;20723;-83
2022/04/13 11:37:24;;;;;;;6.63;4.20;;;;;;;22.91;27.78;97882.22;6178998;28;20233;-83
2022/04/13 11:40:26;;;;;;;5.23;3.93;;;;;;;22.76;28.19;97883.13;6179134;28;20735;-84
2022/04/13 11:43:28;;;;;;;6.63;4.80;;;;;;;23.38;27.59;97878.78;6181994;28;20251;-84
2022/04/13 11:46:37;;;;;;;6.13;4.00;;;;;;;23.08;28.11;97878.19;6158096;28;20242;-83
2022/04/13 11:49:55;;;;;;;8.23;4.60;;;;;;;23.03;27.26;97877.97;6175639;28;20237;-84
2022/04/13 11:53:10;;;;;;;5.63;4.73;;;;;;;22.25;28.09;97877.09;6181221;28;20597;-83
2022/04/13 11:56:12;;;;;;;5.77;4.17;;;;;;;21.94;28.30;97871.13;6157954;28;20253;-83
2022/04/13 11:59:45;;;;;;;7.77;5.20;;;;;;;22.50;28.92;97879.38;6169709;28;20276;-83
2022/04/13 12:02:47;;;;;;;5.30;4.07;;;;;;;22.80;27.69;97873.66;6182371;28;20647;-83
2022/04/13 12:05:53;;;;;;;6.73;4.67;;;;;;;21.96;27.63;97875.28;6173487;28;20236;-83
2022/04/13 12:08:58;;;;;;;10.40;5.03;;;;;;;22.35;29.50;97874.91;6168497;28;20267;-83
2022/04/13 12:12:02;;;;;;;7.13;4.37;;;;;;;21.64;28.47;97871.22;6184069;28;20257;-83
2022/04/13 12:15:05;;;;;;;6.70;4.30;;;;;;;22.17;28.85;97860.22;6156981;28;20222;-84
2022/04/13 12:18:08;;;;;;;5.53;4.00;;;;;;;23.22;27.72;97871.88;6181284;28;20708;-84
2022/04/13 12:21:12;;;;;;;6.80;4.37;;;;;;;23.40;26.84;97874.03;6182410;28;20406;-83
2022/04/13 12:24:14;;;;;;;6.37;4.47;;;;;;;22.92;27.44;97873.13;6195210;28;20766;-83
2022/04/13 12:27:18;;;;;;;6.70;3.97;;;;;;;23.06;26.67;97847.94;6192020;28;20689;-83
2022/04/13 12:30:20;;;;;;;5.83;4.17;;;;;;;23.10;27.25;97863.50;6165862;28;20217;-83
2022/04/13 12:33:23;;;;;;;9.47;5.10;;;;;;;22.90;28.02;97857.16;6165784;28;20232;-83
2022/04/13 12:36:26;;;;;;;6.23;4.27;;;;;;;23.54;27.12;97854.25;6166586;28;20260;-84
2022/04/13 12:39:31;;;;;;;8.17;4.20;;;;;;;24.11;26.16;97851.09;6181010;28;20615;-83
2022/04/13 12:42:33;;;;;;;6.80;4.50;;;;;;;23.10;28.12;97847.34;6164731;28;20233;-84
2022/04/13 12:45:36;;;;;;;6.37;4.50;;;;;;;23.30;27.03;97830.47;6180560;28;20232;-83
2022/04/13 12:48:39;;;;;;;6.43;4.70;;;;;;;22.98;27.24;97854.31;6165080;28;20231;-83
2022/04/13 12:51:41;;;;;;;7.07;4.80;;;;;;;23.74;26.41;97848.94;6182127;28;20225;-83
2022/04/13 12:54:43;;;;;;;5.30;3.97;;;;;;;23.92;26.84;97843.78;6146167;28;20312;-83
2022/04/13 12:57:46;;;;;;;5.43;4.17;;;;;;;23.04;26.96;97841.94;6164619;28;20229;-83
2022/04/13 13:00:53;;;;;;;6.03;4.03;;;;;;;22.92;27.65;97830.06;6181847;28;20290;-83
2022/04/13 13:04:15;;;;;;;6.50;4.23;;;;;;;23.74;26.76;97840.84;6169755;28;20226;-83
2022/04/13 13:07:17;;;;;;;7.30;4.50;;;;;;;24.26;26.28;97823.94;6179548;28;20229;-84
2022/04/13 13:10:20;;;;;;;5.13;3.90;;;;;;;24.09;26.34;97820.78;6181878;28;20370;-84
2022/04/13 13:13:22;;;;;;;5.37;4.70;;;;;;;24.36;26.18;97818.16;6164448;28;20593;-83
2022/04/13 13:16:43;;;;;;;6.93;4.10;;;;;;;23.89;25.88;97823.47;6180242;28;20237;-83
2022/04/13 13:19:48;;;;;;;5.50;3.90;;;;;;;23.63;26.90;97818.00;6173005;28;20344;-83
2022/04/13 13:22:50;;;;;;;7.60;4.43;;;;;;;23.97;26.12;97816.19;6159312;28;20293;-84
2022/04/13 13:25:53;;;;;;;6.50;3.47;;;;;;;24.34;25.79;97812.16;6179319;28;20232;-83
2022/04/13 13:28:55;;;;;;;5.30;3.43;;;;;;;25.45;25.17;97813.84;6179594;28;20237;-84
2022/04/13 13:32:08;;;;;;;4.33;3.23;;;;;;;27.60;22.92;97813.41;6179664;28;20229;-84
2022/04/13 13:35:40;;;;;;;7.82;4.47;;;;;;;29.32;20.08;97806.88;6179629;28;20229;-84
2022/04/13 13:38:47;;;;;;;6.60;3.17;;;;;;;30.80;19.71;97796.88;6178550;28;20272;-83
2022/04/13 13:42:08;;;;;;;5.95;3.63;;;;;;;31.85;18.26;97793.91;6170456;28;20225;-84
2022/04/13 13:45:19;;;;;;;5.53;3.72;;;;;;;30.78;18.42;97794.38;6162460;28;20236;-84
2022/04/13 13:48:25;;;;;;;4.75;3.53;;;;;;;29.92;18.63;97795.59;6179522;28;20246;-84
2022/04/13 13:51:27;;;;;;;5.75;4.47;;;;;;;29.71;19.37;97791.66;6163607;28;20605;-84
2022/04/13 13:54:32;;;;;;;6.18;4.03;;;;;;;30.56;18.79;97795.38;6179493;28;20728;-84
2022/04/13 13:57:35;;;;;;;5.25;3.67;;;;;;;30.76;18.03;97785.63;6179213;28;20728;-84
2022/04/13 14:00:38;;;;;;;5.68;3.63;;;;;;;29.98;18.67;97782.94;6178683;28;20225;-84
2022/04/13 14:03:40;;;;;;;5.20;3.35;;;;;;;31.21;18.30;97781.94;6162432;28;20328;-83
2022/04/13 14:06:43;;;;;;;6.97;3.50;;;;;;;31.96;17.03;97780.38;6162308;28;20265;-83
2022/04/13 14:09:47;;;;;;;4.35;3.65;;;;;;;30.69;18.20;97781.44;6185130;28;20225;-83
2022/04/13 14:12:50;;;;;;;5.90;4.22;;;;;;;31.46;17.76;97775.97;6180613;28;20217;-83
2022/04/13 14:15:52;;;;;;;3.97;3.38;;;;;;;32.93;16.64;97777.44;6180256;28;20221;-84
2022/04/13 14:18:54;;;;;;;4.50;3.22;;;;;;;32.22;17.79;97769.50;6162562;28;20753;-84
2022/04/13 14:21:56;;;;;;;4.82;2.92;;;;;;;33.03;16.84;97779.41;6178333;28;20289;-84
2022/04/13 14:24:59;;;;;;;5.65;3.60;;;;;;;32.65;16.20;97775.81;6159696;28;20706;-84
2022/04/13 14:28:01;;;;;;;5.10;3.30;;;;;;;33.88;15.37;97770.78;6171859;28;20245;-84
2022/04/13 14:31:03;;;;;;;3.58;3.17;;;;;;;33.35;16.09;97774.66;6180015;28;20229;-84